createdAt,value
2022-10-22T00:02:20.718Z,66.84
2022-10-22T00:07:23.015Z,66.85
2022-10-22T00:12:25.854Z,66.98
2022-10-22T00:17:30.064Z,67.08
2022-10-22T00:22:32.046Z,67.17
2022-10-22T00:27:33.841Z,67.24
2022-10-22T00:32:35.638Z,67.26
2022-10-22T00:37:37.665Z,67.26
2022-10-22T00:42:39.903Z,67.37
2022-10-22T00:47:49.135Z,67.47
2022-10-22T00:52:51.643Z,67.52
2022-10-22T00:57:55.963Z,67.54
2022-10-22T01:02:58.454Z,67.60
2022-10-22T01:08:00.461Z,67.84
2022-10-22T01:13:21.060Z,67.92
2022-10-22T01:19:05.930Z,68.10
2022-10-22T01:24:20.673Z,68.33
2022-10-22T01:29:30.496Z,68.71
2022-10-22T01:34:33.701Z,68.94
2022-10-22T01:39:38.691Z,69.21
2022-10-22T01:44:41.521Z,69.42
2022-10-22T01:50:08.596Z,69.69
2022-10-22T01:55:38.569Z,69.96
2022-10-22T02:00:47.519Z,70.05
2022-10-22T02:05:54.202Z,70.01
2022-10-22T02:10:58.655Z,69.99
2022-10-22T02:16:03.209Z,69.93
2022-10-22T02:26:54.677Z,70.09
2022-10-22T02:31:58.881Z,70.22
2022-10-22T02:37:03.578Z,70.48
2022-10-22T02:42:05.811Z,70.59
2022-10-22T02:47:07.749Z,70.66
2022-10-22T02:52:09.598Z,70.80
2022-10-22T03:02:26.631Z,71.12
2022-10-22T03:07:28.609Z,71.20
2022-10-22T03:12:30.726Z,71.19
2022-10-22T03:17:32.656Z,71.05
2022-10-22T03:22:36.625Z,71.02
2022-10-22T03:27:40.229Z,70.79
2022-10-22T03:32:42.280Z,70.62
2022-10-22T03:37:44.150Z,70.60
2022-10-22T03:42:46.183Z,70.82
2022-10-22T03:47:48.178Z,70.97
2022-10-22T03:52:50.178Z,71.09
2022-10-22T03:58:04.320Z,71.11
2022-10-22T04:03:10.789Z,71.25
2022-10-22T04:08:12.553Z,71.43
2022-10-22T04:13:14.448Z,71.46
2022-10-22T04:18:16.366Z,71.35
2022-10-22T04:23:18.217Z,71.31
2022-10-22T04:28:20.158Z,71.32
2022-10-22T04:33:22.136Z,71.25
2022-10-22T04:38:24.050Z,71.22
2022-10-22T04:43:26.055Z,71.19
2022-10-22T04:48:27.839Z,71.14
2022-10-22T04:53:29.693Z,71.19
2022-10-22T04:58:31.710Z,71.27
2022-10-22T05:03:33.665Z,71.33
2022-10-22T05:08:36.051Z,71.38
2022-10-22T05:13:38.469Z,71.41
2022-10-22T05:18:42.823Z,71.35
2022-10-22T05:23:46.295Z,71.40
2022-10-22T05:28:50.261Z,71.42
2022-10-22T05:33:52.249Z,71.42
2022-10-22T05:38:54.513Z,71.43
2022-10-22T05:44:00.526Z,71.52
2022-10-22T05:49:04.998Z,71.56
2022-10-22T05:54:29.289Z,71.50
2022-10-22T05:59:39.297Z,71.54
2022-10-22T06:04:41.050Z,71.43
2022-10-22T06:09:43.116Z,70.96
2022-10-22T06:14:45.239Z,70.53
2022-10-22T06:19:47.127Z,70.16
2022-10-22T06:24:58.500Z,69.66
2022-10-22T06:30:00.719Z,69.24
2022-10-22T06:35:02.588Z,68.97
2022-10-22T06:40:05.055Z,68.86
2022-10-22T06:45:08.099Z,68.69
2022-10-22T06:50:10.168Z,68.37
2022-10-22T06:55:32.321Z,68.03
2022-10-22T07:05:41.972Z,67.34
2022-10-22T07:10:43.780Z,66.80
2022-10-22T07:15:45.684Z,66.12
2022-10-22T07:20:50.751Z,65.85
2022-10-22T07:25:53.096Z,65.56
2022-10-22T07:30:55.098Z,65.08
2022-10-22T07:36:02.278Z,64.78
2022-10-22T07:41:04.883Z,64.82
2022-10-22T07:46:08.727Z,64.87
2022-10-22T07:51:10.679Z,64.73
2022-10-22T07:56:12.575Z,64.54
2022-10-22T08:01:14.599Z,64.47
2022-10-22T08:06:17.929Z,64.10
2022-10-22T08:11:19.825Z,63.61
2022-10-22T08:16:22.980Z,63.24
2022-10-22T08:21:25.199Z,62.85
2022-10-22T08:26:27.133Z,62.66
2022-10-22T08:31:29.310Z,62.73
2022-10-22T08:36:31.910Z,62.73
2022-10-22T08:41:46.610Z,62.57
2022-10-22T08:47:20.053Z,62.63
2022-10-22T08:52:49.302Z,62.67
2022-10-22T08:58:27.300Z,62.58
2022-10-22T09:04:28.405Z,62.55
2022-10-22T09:09:35.972Z,62.50
2022-10-22T09:14:46.868Z,62.32
2022-10-22T09:19:49.050Z,62.37
2022-10-22T09:25:08.298Z,62.43
2022-10-22T09:30:27.056Z,62.64
2022-10-22T09:35:33.403Z,62.96
2022-10-22T09:40:48.677Z,63.06
2022-10-22T09:45:58.275Z,62.90
2022-10-22T09:51:18.225Z,62.60
2022-10-22T09:56:35.502Z,62.58
2022-10-22T10:01:40.968Z,62.63
2022-10-22T10:06:44.562Z,62.70
2022-10-22T10:12:03.668Z,62.82
2022-10-22T10:17:18.581Z,63.03
2022-10-22T10:22:45.011Z,63.32
2022-10-22T10:27:55.829Z,63.47
2022-10-22T10:33:39.136Z,63.46
2022-10-22T10:39:20.314Z,63.30
2022-10-22T10:44:48.035Z,63.33
2022-10-22T10:49:55.029Z,63.30
2022-10-22T10:55:25.362Z,63.55
2022-10-22T11:00:36.033Z,63.77
2022-10-22T11:05:53.297Z,63.98
2022-10-22T11:10:58.828Z,64.13
2022-10-22T11:16:26.666Z,64.20
2022-10-22T11:21:55.978Z,64.48
2022-10-22T11:27:07.013Z,64.75
2022-10-22T11:32:18.870Z,65.09
2022-10-22T11:37:24.822Z,65.50
2022-10-22T11:42:57.312Z,65.77
2022-10-22T11:48:12.652Z,65.99
2022-10-22T11:53:14.441Z,66.25
2022-10-22T11:58:28.477Z,66.60
2022-10-22T12:03:33.300Z,66.89
2022-10-22T12:08:46.889Z,67.08
2022-10-22T12:14:01.046Z,67.54
2022-10-22T12:19:12.928Z,68.08
2022-10-22T12:24:19.313Z,68.58
2022-10-22T12:29:30.275Z,69.10
2022-10-22T12:34:51.414Z,69.28
2022-10-22T12:39:53.182Z,69.32
2022-10-22T12:44:56.558Z,69.33
2022-10-22T12:49:58.966Z,69.41
2022-10-22T12:55:01.028Z,69.32
2022-10-22T13:00:04.187Z,69.21
2022-10-22T13:05:30.979Z,69.41
2022-10-22T13:10:35.333Z,69.60
2022-10-22T13:15:39.572Z,69.93
2022-10-22T13:21:01.890Z,70.59
2022-10-22T13:26:14.096Z,71.48
2022-10-22T13:31:19.557Z,71.84
2022-10-22T13:36:22.690Z,72.39
2022-10-22T13:41:32.203Z,72.84
2022-10-22T13:46:40.598Z,73.21
2022-10-22T13:51:43.229Z,73.80
2022-10-22T13:56:45.782Z,74.30
2022-10-22T14:01:48.167Z,74.61
2022-10-22T14:06:50.329Z,74.97
2022-10-22T14:11:52.266Z,75.46
2022-10-22T14:16:54.464Z,75.88
2022-10-22T14:21:56.540Z,76.19
2022-10-22T14:26:58.965Z,76.46
2022-10-22T14:32:02.417Z,76.61
2022-10-22T14:37:04.209Z,76.97
2022-10-22T14:42:06.019Z,77.17
2022-10-22T14:47:08.242Z,77.27
2022-10-22T14:52:30.265Z,77.19
2022-10-22T14:57:45.304Z,77.09
2022-10-22T15:02:48.116Z,77.20
2022-10-22T15:07:49.959Z,77.36
2022-10-22T15:12:52.190Z,77.56
2022-10-22T15:17:54.268Z,77.79
2022-10-22T15:22:56.789Z,78.06
2022-10-22T15:28:04.778Z,78.29
2022-10-22T15:33:11.705Z,78.40
2022-10-22T15:38:14.076Z,78.52
2022-10-22T15:43:15.894Z,78.75
2022-10-22T15:48:21.537Z,78.77
2022-10-22T15:53:23.414Z,78.68
2022-10-22T15:58:25.393Z,78.74
2022-10-22T16:03:27.413Z,78.82
2022-10-22T16:08:29.864Z,78.91
2022-10-22T16:13:31.927Z,79.26
2022-10-22T16:18:34.037Z,79.29
2022-10-22T16:23:36.521Z,79.20
2022-10-22T16:28:38.953Z,79.22
2022-10-22T16:33:47.895Z,79.54
2022-10-22T16:38:52.086Z,80.12
2022-10-22T16:43:55.495Z,80.48
2022-10-22T16:48:57.901Z,80.88
2022-10-22T16:53:59.929Z,81.17
2022-10-22T16:59:01.949Z,81.34
2022-10-22T17:04:04.151Z,81.39
2022-10-22T17:09:06.315Z,81.60
2022-10-22T17:14:08.603Z,81.80
2022-10-22T17:19:15.358Z,82.06
2022-10-22T17:24:18.390Z,82.23
2022-10-22T17:29:29.969Z,82.42
2022-10-22T17:34:33.400Z,82.62
2022-10-22T17:39:36.592Z,82.85
2022-10-22T17:44:38.507Z,83.06
2022-10-22T17:49:41.233Z,83.22
2022-10-22T17:54:43.593Z,83.39
2022-10-22T17:59:45.499Z,83.66
2022-10-22T18:04:52.231Z,83.89
2022-10-22T18:09:54.170Z,83.95
2022-10-22T18:15:06.360Z,83.94
2022-10-22T18:20:21.693Z,83.98
2022-10-22T18:25:24.092Z,84.05
2022-10-22T18:30:26.225Z,84.09
2022-10-22T18:35:32.207Z,83.98
2022-10-22T18:40:36.014Z,83.91
2022-10-22T18:45:45.998Z,83.94
2022-10-22T18:50:47.825Z,83.88
2022-10-22T18:55:49.617Z,83.91
2022-10-22T19:00:52.038Z,84.10
2022-10-22T19:06:07.484Z,84.31
2022-10-22T19:11:15.427Z,84.50
2022-10-22T19:16:24.106Z,84.57
2022-10-22T19:21:26.361Z,84.57
2022-10-22T19:26:30.538Z,84.60
2022-10-22T19:31:32.672Z,84.66
2022-10-22T19:36:55.238Z,84.83
2022-10-22T19:42:12.406Z,85.04
2022-10-22T19:47:15.690Z,85.22
2022-10-22T19:52:17.666Z,85.30
2022-10-22T19:57:19.567Z,85.34
2022-10-22T20:02:23.162Z,85.36
2022-10-22T20:07:25.238Z,85.38
2022-10-22T20:12:27.133Z,85.32
2022-10-22T20:17:29.070Z,85.30
2022-10-22T20:22:31.266Z,85.25
2022-10-22T20:27:33.044Z,85.10
2022-10-22T20:32:39.288Z,85.03
2022-10-22T20:37:41.710Z,84.98
2022-10-22T20:42:44.241Z,84.93
2022-10-22T20:47:51.622Z,84.91
2022-10-22T20:53:00.519Z,84.88
2022-10-22T20:58:02.441Z,84.81
2022-10-22T21:03:04.734Z,84.72
2022-10-22T21:08:06.940Z,84.73
2022-10-22T21:13:14.068Z,84.72
2022-10-22T21:18:16.397Z,84.69
2022-10-22T21:23:18.286Z,84.71
2022-10-22T21:28:20.235Z,84.74
2022-10-22T21:33:22.157Z,84.71
2022-10-22T21:38:25.382Z,84.56
2022-10-22T21:43:27.322Z,84.42
2022-10-22T21:48:29.207Z,84.24
2022-10-22T21:53:31.009Z,84.05
2022-10-22T21:58:36.310Z,84.11
2022-10-22T22:03:38.491Z,84.32
2022-10-22T22:08:40.576Z,84.49
2022-10-22T22:13:42.994Z,84.70
2022-10-22T22:18:44.827Z,85.01
2022-10-22T22:23:49.124Z,85.26
2022-10-22T22:28:51.185Z,85.52
2022-10-22T22:34:02.344Z,85.84
2022-10-22T22:39:06.797Z,86.08
2022-10-22T22:44:08.717Z,86.27
2022-10-22T22:49:12.991Z,86.44
2022-10-22T22:54:14.862Z,86.46
2022-10-22T22:59:16.776Z,86.41
2022-10-22T23:04:23.624Z,86.25
2022-10-22T23:09:28.428Z,86.07
2022-10-22T23:14:33.144Z,85.84
2022-10-22T23:19:35.155Z,85.81
2022-10-22T23:24:38.174Z,86.03
2022-10-22T23:29:40.136Z,86.38
2022-10-22T23:34:42.370Z,86.57
2022-10-22T23:39:45.246Z,86.63
2022-10-22T23:50:23.621Z,86.32
2022-10-22T23:55:25.694Z,86.08
